sensor_id;sensor_type;location;lat;lon;timestamp;P1;durP1;ratioP1;P2;durP2;ratioP2
74102;SDS011;62853;46.166;3.640;2022-11-15T00:01:31;12.07;;;8.25;;
74102;SDS011;62853;46.166;3.640;2022-11-15T00:03:57;16.20;;;11.63;;
74102;SDS011;62853;46.166;3.640;2022-11-15T00:06:22;11.32;;;7.32;;
74102;SDS011;62853;46.166;3.640;2022-11-15T00:08:47;8.13;;;5.55;;
74102;SDS011;62853;46.166;3.640;2022-11-15T00:11:13;8.65;;;6.30;;
74102;SDS011;62853;46.166;3.640;2022-11-15T00:13:38;6.70;;;4.97;;
74102;SDS011;62853;46.166;3.640;2022-11-15T00:16:04;5.35;;;4.18;;
74102;SDS011;62853;46.166;3.640;2022-11-15T00:18:29;3.85;;;3.30;;
74102;SDS011;62853;46.166;3.640;2022-11-15T00:20:55;5.40;;;3.55;;
74102;SDS011;62853;46.166;3.640;2022-11-15T00:23:21;5.43;;;4.18;;
74102;SDS011;62853;46.166;3.640;2022-11-15T00:25:47;7.30;;;5.10;;
74102;SDS011;62853;46.166;3.640;2022-11-15T00:28:12;4.93;;;4.20;;
74102;SDS011;62853;46.166;3.640;2022-11-15T00:30:37;3.97;;;3.50;;
74102;SDS011;62853;46.166;3.640;2022-11-15T00:33:03;3.45;;;3.10;;
74102;SDS011;62853;46.166;3.640;2022-11-15T00:35:30;4.45;;;3.17;;
74102;SDS011;62853;46.166;3.640;2022-11-15T00:37:57;6.53;;;4.85;;
74102;SDS011;62853;46.166;3.640;2022-11-15T00:40:23;6.85;;;4.93;;
74102;SDS011;62853;46.166;3.640;2022-11-15T00:42:48;4.72;;;4.10;;
74102;SDS011;62853;46.166;3.640;2022-11-15T00:45:14;6.28;;;4.60;;
74102;SDS011;62853;46.166;3.640;2022-11-15T00:47:39;4.13;;;3.33;;
74102;SDS011;62853;46.166;3.640;2022-11-15T00:50:04;3.28;;;2.97;;
74102;SDS011;62853;46.166;3.640;2022-11-15T00:52:30;10.20;;;7.63;;
74102;SDS011;62853;46.166;3.640;2022-11-15T00:54:55;12.10;;;8.70;;
74102;SDS011;62853;46.166;3.640;2022-11-15T00:57:21;10.10;;;7.32;;
74102;SDS011;62853;46.166;3.640;2022-11-15T00:59:46;7.07;;;5.93;;
74102;SDS011;62853;46.166;3.640;2022-11-15T01:02:11;5.80;;;4.50;;
74102;SDS011;62853;46.166;3.640;2022-11-15T01:04:37;3.58;;;3.03;;
74102;SDS011;62853;46.166;3.640;2022-11-15T01:07:02;8.90;;;6.65;;
74102;SDS011;62853;46.166;3.640;2022-11-15T01:09:27;5.70;;;4.60;;
74102;SDS011;62853;46.166;3.640;2022-11-15T01:11:53;5.70;;;4.30;;
74102;SDS011;62853;46.166;3.640;2022-11-15T01:14:18;3.88;;;3.17;;
74102;SDS011;62853;46.166;3.640;2022-11-15T01:16:44;3.47;;;2.80;;
74102;SDS011;62853;46.166;3.640;2022-11-15T01:19:09;2.88;;;2.38;;
74102;SDS011;62853;46.166;3.640;2022-11-15T01:21:34;5.10;;;3.53;;
74102;SDS011;62853;46.166;3.640;2022-11-15T01:24:00;6.65;;;4.80;;
74102;SDS011;62853;46.166;3.640;2022-11-15T01:26:25;3.80;;;3.00;;
74102;SDS011;62853;46.166;3.640;2022-11-15T01:28:51;3.50;;;2.80;;
74102;SDS011;62853;46.166;3.640;2022-11-15T01:31:18;5.15;;;4.13;;
74102;SDS011;62853;46.166;3.640;2022-11-15T01:33:47;4.22;;;3.53;;
74102;SDS011;62853;46.166;3.640;2022-11-15T01:36:20;6.68;;;4.78;;
74102;SDS011;62853;46.166;3.640;2022-11-15T01:38:52;6.47;;;5.07;;
74102;SDS011;62853;46.166;3.640;2022-11-15T01:41:29;5.70;;;4.43;;
74102;SDS011;62853;46.166;3.640;2022-11-15T01:43:57;4.75;;;3.70;;
74102;SDS011;62853;46.166;3.640;2022-11-15T01:46:44;5.05;;;3.60;;
74102;SDS011;62853;46.166;3.640;2022-11-15T01:49:16;6.93;;;5.53;;
74102;SDS011;62853;46.166;3.640;2022-11-15T01:51:44;5.93;;;4.90;;
74102;SDS011;62853;46.166;3.640;2022-11-15T01:54:10;9.13;;;6.70;;
74102;SDS011;62853;46.166;3.640;2022-11-15T01:56:49;8.50;;;6.25;;
74102;SDS011;62853;46.166;3.640;2022-11-15T01:59:18;8.05;;;6.15;;
74102;SDS011;62853;46.166;3.640;2022-11-15T02:01:44;5.53;;;4.38;;
74102;SDS011;62853;46.166;3.640;2022-11-15T02:04:15;6.40;;;4.93;;
74102;SDS011;62853;46.166;3.640;2022-11-15T02:06:42;4.95;;;4.40;;
74102;SDS011;62853;46.166;3.640;2022-11-15T02:09:09;4.53;;;3.80;;
74102;SDS011;62853;46.166;3.640;2022-11-15T02:11:35;7.38;;;5.70;;
74102;SDS011;62853;46.166;3.640;2022-11-15T02:14:01;6.20;;;5.28;;
74102;SDS011;62853;46.166;3.640;2022-11-15T02:30:21;4.93;;;4.30;;
74102;SDS011;62853;46.166;3.640;2022-11-15T02:32:50;5.00;;;4.28;;
74102;SDS011;62853;46.166;3.640;2022-11-15T02:35:29;4.78;;;4.00;;
74102;SDS011;62853;46.166;3.640;2022-11-15T02:38:22;6.35;;;4.85;;
74102;SDS011;62853;46.166;3.640;2022-11-15T02:40:57;8.77;;;6.05;;
74102;SDS011;62853;46.166;3.640;2022-11-15T02:43:33;4.72;;;4.13;;
74102;SDS011;62853;46.166;3.640;2022-11-15T02:46:21;13.63;;;9.80;;
74102;SDS011;62853;46.166;3.640;2022-11-15T02:49:08;9.00;;;7.43;;
74102;SDS011;62853;46.166;3.640;2022-11-15T02:51:34;7.97;;;6.63;;
74102;SDS011;62853;46.166;3.640;2022-11-15T02:53:59;6.97;;;5.97;;
74102;SDS011;62853;46.166;3.640;2022-11-15T02:56:25;5.78;;;4.88;;
74102;SDS011;62853;46.166;3.640;2022-11-15T03:01:37;4.22;;;3.63;;
74102;SDS011;62853;46.166;3.640;2022-11-15T03:04:25;4.43;;;3.65;;
74102;SDS011;62853;46.166;3.640;2022-11-15T03:07:34;6.38;;;5.10;;
74102;SDS011;62853;46.166;3.640;2022-11-15T03:10:05;7.93;;;5.40;;
74102;SDS011;62853;46.166;3.640;2022-11-15T03:12:46;7.93;;;6.70;;
74102;SDS011;62853;46.166;3.640;2022-11-15T03:15:42;17.55;;;12.52;;
74102;SDS011;62853;46.166;3.640;2022-11-15T03:18:35;11.40;;;9.18;;
74102;SDS011;62853;46.166;3.640;2022-11-15T03:21:06;7.80;;;6.47;;
74102;SDS011;62853;46.166;3.640;2022-11-15T03:23:34;9.45;;;7.18;;
74102;SDS011;62853;46.166;3.640;2022-11-15T03:26:02;11.15;;;8.90;;
74102;SDS011;62853;46.166;3.640;2022-11-15T03:28:33;8.25;;;7.25;;
74102;SDS011;62853;46.166;3.640;2022-11-15T03:31:06;6.25;;;5.32;;
74102;SDS011;62853;46.166;3.640;2022-11-15T03:34:06;5.28;;;4.63;;
74102;SDS011;62853;46.166;3.640;2022-11-15T03:36:35;4.05;;;3.60;;
74102;SDS011;62853;46.166;3.640;2022-11-15T03:39:04;4.78;;;4.28;;
74102;SDS011;62853;46.166;3.640;2022-11-15T03:49:32;8.85;;;6.82;;
74102;SDS011;62853;46.166;3.640;2022-11-15T03:52:00;5.85;;;4.70;;
74102;SDS011;62853;46.166;3.640;2022-11-15T03:54:27;7.00;;;5.32;;
74102;SDS011;62853;46.166;3.640;2022-11-15T03:56:52;4.72;;;3.80;;
74102;SDS011;62853;46.166;3.640;2022-11-15T03:59:17;5.70;;;4.90;;
74102;SDS011;62853;46.166;3.640;2022-11-15T04:01:43;7.63;;;6.15;;
74102;SDS011;62853;46.166;3.640;2022-11-15T04:04:08;5.57;;;4.60;;
74102;SDS011;62853;46.166;3.640;2022-11-15T04:06:34;3.70;;;3.30;;
74102;SDS011;62853;46.166;3.640;2022-11-15T04:08:59;3.40;;;3.10;;
74102;SDS011;62853;46.166;3.640;2022-11-15T04:11:24;4.43;;;3.60;;
74102;SDS011;62853;46.166;3.640;2022-11-15T04:13:49;3.72;;;2.90;;
74102;SDS011;62853;46.166;3.640;2022-11-15T04:16:15;2.85;;;2.60;;
74102;SDS011;62853;46.166;3.640;2022-11-15T04:18:40;4.28;;;3.63;;
74102;SDS011;62853;46.166;3.640;2022-11-15T04:21:06;3.90;;;3.42;;
74102;SDS011;62853;46.166;3.640;2022-11-15T04:24:11;3.38;;;2.90;;
74102;SDS011;62853;46.166;3.640;2022-11-15T04:26:39;2.90;;;2.60;;
74102;SDS011;62853;46.166;3.640;2022-11-15T04:29:04;3.90;;;3.17;;
74102;SDS011;62853;46.166;3.640;2022-11-15T04:32:08;2.55;;;2.35;;
74102;SDS011;62853;46.166;3.640;2022-11-15T04:34:33;2.30;;;1.90;;
74102;SDS011;62853;46.166;3.640;2022-11-15T04:37:00;4.15;;;3.05;;
74102;SDS011;62853;46.166;3.640;2022-11-15T04:39:37;3.58;;;3.10;;
74102;SDS011;62853;46.166;3.640;2022-11-15T04:42:03;3.38;;;2.88;;
74102;SDS011;62853;46.166;3.640;2022-11-15T04:44:28;3.55;;;2.92;;
74102;SDS011;62853;46.166;3.640;2022-11-15T04:46:53;3.42;;;2.80;;
74102;SDS011;62853;46.166;3.640;2022-11-15T04:49:19;10.82;;;4.25;;
74102;SDS011;62853;46.166;3.640;2022-11-15T04:51:44;3.75;;;2.97;;
74102;SDS011;62853;46.166;3.640;2022-11-15T04:54:10;2.60;;;2.35;;
74102;SDS011;62853;46.166;3.640;2022-11-15T04:56:35;8.55;;;5.88;;
74102;SDS011;62853;46.166;3.640;2022-11-15T04:59:00;5.78;;;4.57;;
74102;SDS011;62853;46.166;3.640;2022-11-15T05:01:26;7.25;;;6.10;;
74102;SDS011;62853;46.166;3.640;2022-11-15T05:03:51;8.38;;;5.75;;
74102;SDS011;62853;46.166;3.640;2022-11-15T05:06:35;9.35;;;6.68;;
74102;SDS011;62853;46.166;3.640;2022-11-15T05:09:01;5.53;;;4.72;;
74102;SDS011;62853;46.166;3.640;2022-11-15T05:11:26;4.78;;;4.13;;
74102;SDS011;62853;46.166;3.640;2022-11-15T05:13:52;8.93;;;6.50;;
74102;SDS011;62853;46.166;3.640;2022-11-15T05:16:18;7.45;;;5.93;;
74102;SDS011;62853;46.166;3.640;2022-11-15T05:18:43;7.25;;;5.55;;
74102;SDS011;62853;46.166;3.640;2022-11-15T05:21:10;7.28;;;5.78;;
74102;SDS011;62853;46.166;3.640;2022-11-15T05:23:37;6.22;;;4.80;;
74102;SDS011;62853;46.166;3.640;2022-11-15T05:26:03;6.15;;;5.32;;
74102;SDS011;62853;46.166;3.640;2022-11-15T05:28:30;5.25;;;4.13;;
74102;SDS011;62853;46.166;3.640;2022-11-15T05:31:06;6.70;;;5.07;;
74102;SDS011;62853;46.166;3.640;2022-11-15T05:33:33;4.95;;;4.10;;
74102;SDS011;62853;46.166;3.640;2022-11-15T05:36:02;3.75;;;3.33;;
74102;SDS011;62853;46.166;3.640;2022-11-15T05:38:31;4.35;;;3.67;;
74102;SDS011;62853;46.166;3.640;2022-11-15T05:40:57;3.38;;;2.85;;
74102;SDS011;62853;46.166;3.640;2022-11-15T05:43:25;3.35;;;3.03;;
74102;SDS011;62853;46.166;3.640;2022-11-15T05:45:51;2.70;;;2.33;;
74102;SDS011;62853;46.166;3.640;2022-11-15T05:48:16;4.50;;;2.97;;
74102;SDS011;62853;46.166;3.640;2022-11-15T05:50:43;4.47;;;3.15;;
74102;SDS011;62853;46.166;3.640;2022-11-15T05:53:11;2.60;;;2.25;;
74102;SDS011;62853;46.166;3.640;2022-11-15T05:55:39;10.75;;;7.47;;
74102;SDS011;62853;46.166;3.640;2022-11-15T05:58:06;18.50;;;13.25;;
74102;SDS011;62853;46.166;3.640;2022-11-15T06:00:32;13.57;;;9.63;;
74102;SDS011;62853;46.166;3.640;2022-11-15T06:02:58;14.02;;;10.05;;
74102;SDS011;62853;46.166;3.640;2022-11-15T06:05:23;9.10;;;7.45;;
74102;SDS011;62853;46.166;3.640;2022-11-15T06:07:48;10.05;;;7.78;;
74102;SDS011;62853;46.166;3.640;2022-11-15T06:10:14;7.18;;;5.82;;
74102;SDS011;62853;46.166;3.640;2022-11-15T06:12:39;11.25;;;8.65;;
74102;SDS011;62853;46.166;3.640;2022-11-15T06:15:04;9.15;;;7.40;;
74102;SDS011;62853;46.166;3.640;2022-11-15T06:17:30;9.40;;;7.10;;
74102;SDS011;62853;46.166;3.640;2022-11-15T06:19:55;7.38;;;5.82;;
74102;SDS011;62853;46.166;3.640;2022-11-15T06:22:21;5.93;;;4.90;;
74102;SDS011;62853;46.166;3.640;2022-11-15T06:24:46;10.35;;;7.93;;
74102;SDS011;62853;46.166;3.640;2022-11-15T06:27:12;12.98;;;9.68;;
74102;SDS011;62853;46.166;3.640;2022-11-15T06:29:37;10.68;;;8.60;;
74102;SDS011;62853;46.166;3.640;2022-11-15T06:32:03;12.20;;;8.95;;
74102;SDS011;62853;46.166;3.640;2022-11-15T06:34:28;15.38;;;10.35;;
74102;SDS011;62853;46.166;3.640;2022-11-15T06:36:54;9.80;;;7.50;;
74102;SDS011;62853;46.166;3.640;2022-11-15T06:39:19;9.15;;;6.78;;
74102;SDS011;62853;46.166;3.640;2022-11-15T06:41:45;5.18;;;4.60;;
74102;SDS011;62853;46.166;3.640;2022-11-15T06:44:10;4.82;;;3.97;;
74102;SDS011;62853;46.166;3.640;2022-11-15T06:46:36;4.78;;;4.28;;
74102;SDS011;62853;46.166;3.640;2022-11-15T06:49:01;3.85;;;3.45;;
74102;SDS011;62853;46.166;3.640;2022-11-15T06:51:26;3.88;;;3.30;;
74102;SDS011;62853;46.166;3.640;2022-11-15T06:53:52;5.07;;;3.72;;
74102;SDS011;62853;46.166;3.640;2022-11-15T06:56:17;2.72;;;2.20;;
74102;SDS011;62853;46.166;3.640;2022-11-15T06:58:42;1.77;;;1.60;;
74102;SDS011;62853;46.166;3.640;2022-11-15T07:01:09;3.75;;;3.30;;
74102;SDS011;62853;46.166;3.640;2022-11-15T07:03:39;3.95;;;3.15;;
74102;SDS011;62853;46.166;3.640;2022-11-15T07:06:06;3.55;;;2.97;;
74102;SDS011;62853;46.166;3.640;2022-11-15T07:08:33;2.40;;;2.20;;
74102;SDS011;62853;46.166;3.640;2022-11-15T07:11:00;2.65;;;2.20;;
74102;SDS011;62853;46.166;3.640;2022-11-15T07:13:27;1.85;;;1.70;;
74102;SDS011;62853;46.166;3.640;2022-11-15T07:15:54;2.92;;;2.03;;
74102;SDS011;62853;46.166;3.640;2022-11-15T07:18:19;2.00;;;1.67;;
74102;SDS011;62853;46.166;3.640;2022-11-15T07:20:45;1.50;;;1.40;;
74102;SDS011;62853;46.166;3.640;2022-11-15T07:23:11;5.32;;;3.45;;
74102;SDS011;62853;46.166;3.640;2022-11-15T07:25:36;4.50;;;3.60;;
74102;SDS011;62853;46.166;3.640;2022-11-15T07:28:02;4.43;;;3.20;;
74102;SDS011;62853;46.166;3.640;2022-11-15T07:30:28;5.15;;;4.15;;
74102;SDS011;62853;46.166;3.640;2022-11-15T07:32:57;6.82;;;4.68;;
74102;SDS011;62853;46.166;3.640;2022-11-15T07:35:24;6.10;;;4.63;;
74102;SDS011;62853;46.166;3.640;2022-11-15T07:37:54;10.88;;;7.60;;
74102;SDS011;62853;46.166;3.640;2022-11-15T07:40:23;12.20;;;9.15;;
74102;SDS011;62853;46.166;3.640;2022-11-15T07:42:49;11.88;;;9.10;;
74102;SDS011;62853;46.166;3.640;2022-11-15T07:45:17;11.05;;;7.97;;
74102;SDS011;62853;46.166;3.640;2022-11-15T07:47:46;17.95;;;13.32;;
74102;SDS011;62853;46.166;3.640;2022-11-15T07:50:13;10.07;;;8.10;;
74102;SDS011;62853;46.166;3.640;2022-11-15T07:52:38;6.75;;;5.65;;
74102;SDS011;62853;46.166;3.640;2022-11-15T07:55:03;5.28;;;4.78;;
74102;SDS011;62853;46.166;3.640;2022-11-15T07:57:29;4.80;;;4.30;;
74102;SDS011;62853;46.166;3.640;2022-11-15T07:59:55;5.03;;;4.15;;
74102;SDS011;62853;46.166;3.640;2022-11-15T08:02:20;3.13;;;2.80;;
74102;SDS011;62853;46.166;3.640;2022-11-15T08:04:46;6.18;;;4.57;;
74102;SDS011;62853;46.166;3.640;2022-11-15T08:07:11;4.25;;;3.83;;
74102;SDS011;62853;46.166;3.640;2022-11-15T08:09:37;3.92;;;3.33;;
74102;SDS011;62853;46.166;3.640;2022-11-15T08:12:02;7.43;;;5.75;;
74102;SDS011;62853;46.166;3.640;2022-11-15T08:14:27;6.25;;;5.00;;
74102;SDS011;62853;46.166;3.640;2022-11-15T08:16:54;6.45;;;5.05;;
74102;SDS011;62853;46.166;3.640;2022-11-15T08:19:19;4.13;;;3.40;;
74102;SDS011;62853;46.166;3.640;2022-11-15T08:21:45;8.73;;;6.20;;
74102;SDS011;62853;46.166;3.640;2022-11-15T08:24:10;9.68;;;7.05;;
74102;SDS011;62853;46.166;3.640;2022-11-15T08:26:36;10.18;;;7.68;;
74102;SDS011;62853;46.166;3.640;2022-11-15T08:29:01;12.48;;;9.80;;
74102;SDS011;62853;46.166;3.640;2022-11-15T08:31:26;8.20;;;6.60;;
74102;SDS011;62853;46.166;3.640;2022-11-15T08:33:52;8.15;;;6.65;;
74102;SDS011;62853;46.166;3.640;2022-11-15T08:36:17;14.38;;;10.57;;
74102;SDS011;62853;46.166;3.640;2022-11-15T08:38:43;8.80;;;7.10;;
74102;SDS011;62853;46.166;3.640;2022-11-15T08:41:24;6.50;;;5.63;;
74102;SDS011;62853;46.166;3.640;2022-11-15T08:43:53;5.88;;;4.93;;
74102;SDS011;62853;46.166;3.640;2022-11-15T08:46:18;11.73;;;8.40;;
74102;SDS011;62853;46.166;3.640;2022-11-15T08:48:44;11.70;;;9.25;;
74102;SDS011;62853;46.166;3.640;2022-11-15T08:51:09;9.52;;;7.85;;
74102;SDS011;62853;46.166;3.640;2022-11-15T08:53:35;5.72;;;5.13;;
74102;SDS011;62853;46.166;3.640;2022-11-15T08:56:00;7.15;;;5.38;;
74102;SDS011;62853;46.166;3.640;2022-11-15T08:58:26;5.32;;;4.28;;
74102;SDS011;62853;46.166;3.640;2022-11-15T09:00:51;5.38;;;4.32;;
74102;SDS011;62853;46.166;3.640;2022-11-15T09:03:17;7.85;;;6.20;;
74102;SDS011;62853;46.166;3.640;2022-11-15T09:05:42;5.00;;;4.47;;
74102;SDS011;62853;46.166;3.640;2022-11-15T09:08:08;3.40;;;3.10;;
74102;SDS011;62853;46.166;3.640;2022-11-15T09:10:33;5.93;;;4.47;;
74102;SDS011;62853;46.166;3.640;2022-11-15T09:12:58;7.40;;;5.82;;
74102;SDS011;62853;46.166;3.640;2022-11-15T09:15:24;6.95;;;5.95;;
74102;SDS011;62853;46.166;3.640;2022-11-15T09:17:49;7.85;;;5.55;;
74102;SDS011;62853;46.166;3.640;2022-11-15T09:20:15;9.23;;;6.75;;
74102;SDS011;62853;46.166;3.640;2022-11-15T09:22:40;8.70;;;6.47;;
74102;SDS011;62853;46.166;3.640;2022-11-15T09:25:06;11.73;;;6.50;;
74102;SDS011;62853;46.166;3.640;2022-11-15T09:27:31;5.63;;;5.13;;
74102;SDS011;62853;46.166;3.640;2022-11-15T09:29:57;6.00;;;5.13;;
74102;SDS011;62853;46.166;3.640;2022-11-15T09:32:22;8.45;;;6.28;;
74102;SDS011;62853;46.166;3.640;2022-11-15T09:34:48;6.05;;;5.20;;
74102;SDS011;62853;46.166;3.640;2022-11-15T09:37:14;4.35;;;3.92;;
74102;SDS011;62853;46.166;3.640;2022-11-15T09:39:40;10.77;;;5.00;;
74102;SDS011;62853;46.166;3.640;2022-11-15T09:42:21;6.40;;;4.60;;
74102;SDS011;62853;46.166;3.640;2022-11-15T09:45:15;5.32;;;4.18;;
74102;SDS011;62853;46.166;3.640;2022-11-15T09:50:34;4.18;;;3.63;;
74102;SDS011;62853;46.166;3.640;2022-11-15T09:53:04;4.18;;;3.08;;
74102;SDS011;62853;46.166;3.640;2022-11-15T09:55:58;2.85;;;2.50;;
74102;SDS011;62853;46.166;3.640;2022-11-15T09:58:35;4.72;;;3.13;;
74102;SDS011;62853;46.166;3.640;2022-11-15T10:01:07;3.83;;;2.58;;
74102;SDS011;62853;46.166;3.640;2022-11-15T10:03:39;3.55;;;2.50;;
74102;SDS011;62853;46.166;3.640;2022-11-15T10:06:10;2.75;;;2.55;;
74102;SDS011;62853;46.166;3.640;2022-11-15T10:08:56;5.65;;;2.95;;
74102;SDS011;62853;46.166;3.640;2022-11-15T10:11:24;4.30;;;2.90;;
74102;SDS011;62853;46.166;3.640;2022-11-15T10:13:53;2.63;;;2.30;;
74102;SDS011;62853;46.166;3.640;2022-11-15T10:19:14;2.67;;;2.40;;
74102;SDS011;62853;46.166;3.640;2022-11-15T10:24:42;3.03;;;2.30;;
74102;SDS011;62853;46.166;3.640;2022-11-15T10:27:13;3.25;;;2.58;;
74102;SDS011;62853;46.166;3.640;2022-11-15T10:29:44;4.07;;;2.30;;
74102;SDS011;62853;46.166;3.640;2022-11-15T10:32:11;2.92;;;2.00;;
74102;SDS011;62853;46.166;3.640;2022-11-15T10:34:37;4.15;;;2.35;;
74102;SDS011;62853;46.166;3.640;2022-11-15T10:37:03;2.42;;;2.22;;
74102;SDS011;62853;46.166;3.640;2022-11-15T10:39:29;2.38;;;2.15;;
74102;SDS011;62853;46.166;3.640;2022-11-15T10:41:54;2.28;;;2.08;;
74102;SDS011;62853;46.166;3.640;2022-11-15T10:47:16;2.05;;;1.90;;
74102;SDS011;62853;46.166;3.640;2022-11-15T10:49:59;3.17;;;1.80;;
74102;SDS011;62853;46.166;3.640;2022-11-15T10:52:26;2.72;;;2.42;;
74102;SDS011;62853;46.166;3.640;2022-11-15T10:54:55;2.22;;;2.03;;
74102;SDS011;62853;46.166;3.640;2022-11-15T10:57:47;1.95;;;1.75;;
74102;SDS011;62853;46.166;3.640;2022-11-15T11:03:06;3.55;;;3.17;;
74102;SDS011;62853;46.166;3.640;2022-11-15T11:05:36;3.00;;;2.70;;
74102;SDS011;62853;46.166;3.640;2022-11-15T11:10:30;3.95;;;2.72;;
74102;SDS011;62853;46.166;3.640;2022-11-15T11:13:05;4.40;;;3.00;;
74102;SDS011;62853;46.166;3.640;2022-11-15T11:15:38;2.90;;;2.60;;
74102;SDS011;62853;46.166;3.640;2022-11-15T11:20:49;3.60;;;2.28;;
74102;SDS011;62853;46.166;3.640;2022-11-15T11:29:20;2.30;;;2.10;;
74102;SDS011;62853;46.166;3.640;2022-11-15T11:31:58;3.25;;;2.58;;
74102;SDS011;62853;46.166;3.640;2022-11-15T11:42:57;3.28;;;2.38;;
74102;SDS011;62853;46.166;3.640;2022-11-15T11:50:32;2.10;;;1.73;;
74102;SDS011;62853;46.166;3.640;2022-11-15T11:55:51;2.85;;;1.90;;
74102;SDS011;62853;46.166;3.640;2022-11-15T11:58:20;2.85;;;2.05;;
74102;SDS011;62853;46.166;3.640;2022-11-15T12:00:54;2.20;;;1.92;;
74102;SDS011;62853;46.166;3.640;2022-11-15T12:14:43;5.03;;;1.48;;
74102;SDS011;62853;46.166;3.640;2022-11-15T12:17:12;4.47;;;1.92;;
74102;SDS011;62853;46.166;3.640;2022-11-15T12:19:41;3.25;;;1.42;;
74102;SDS011;62853;46.166;3.640;2022-11-15T12:27:41;2.13;;;1.20;;
74102;SDS011;62853;46.166;3.640;2022-11-15T12:30:13;3.38;;;1.65;;
74102;SDS011;62853;46.166;3.640;2022-11-15T12:32:51;1.45;;;1.10;;
74102;SDS011;62853;46.166;3.640;2022-11-15T12:35:24;3.20;;;1.38;;
74102;SDS011;62853;46.166;3.640;2022-11-15T12:37:57;3.22;;;1.30;;
74102;SDS011;62853;46.166;3.640;2022-11-15T12:40:30;2.58;;;1.50;;
74102;SDS011;62853;46.166;3.640;2022-11-15T12:45:39;4.40;;;1.30;;
74102;SDS011;62853;46.166;3.640;2022-11-15T13:04:08;4.10;;;1.58;;
74102;SDS011;62853;46.166;3.640;2022-11-15T13:06:38;2.13;;;1.45;;
74102;SDS011;62853;46.166;3.640;2022-11-15T13:22:25;2.22;;;1.60;;
74102;SDS011;62853;46.166;3.640;2022-11-15T13:28:07;1.77;;;1.20;;
74102;SDS011;62853;46.166;3.640;2022-11-15T13:30:53;1.88;;;1.17;;
74102;SDS011;62853;46.166;3.640;2022-11-15T13:33:21;3.17;;;1.50;;
74102;SDS011;62853;46.166;3.640;2022-11-15T13:35:50;1.58;;;1.48;;
74102;SDS011;62853;46.166;3.640;2022-11-15T13:38:29;2.20;;;1.48;;
74102;SDS011;62853;46.166;3.640;2022-11-15T13:40:55;5.60;;;1.05;;
74102;SDS011;62853;46.166;3.640;2022-11-15T13:49:02;2.50;;;1.63;;
74102;SDS011;62853;46.166;3.640;2022-11-15T13:51:36;4.25;;;1.42;;
74102;SDS011;62853;46.166;3.640;2022-11-15T13:56:39;3.50;;;1.58;;
74102;SDS011;62853;46.166;3.640;2022-11-15T13:59:13;2.10;;;1.38;;
74102;SDS011;62853;46.166;3.640;2022-11-15T14:01:47;3.50;;;1.27;;
74102;SDS011;62853;46.166;3.640;2022-11-15T14:04:17;4.43;;;1.20;;
74102;SDS011;62853;46.166;3.640;2022-11-15T14:06:49;2.40;;;1.40;;
74102;SDS011;62853;46.166;3.640;2022-11-15T14:11:53;2.45;;;1.58;;
74102;SDS011;62853;46.166;3.640;2022-11-15T14:14:21;1.95;;;1.23;;
74102;SDS011;62853;46.166;3.640;2022-11-15T14:16:54;1.20;;;0.93;;
74102;SDS011;62853;46.166;3.640;2022-11-15T14:24:37;1.70;;;1.08;;
74102;SDS011;62853;46.166;3.640;2022-11-15T14:29:50;3.08;;;1.40;;
74102;SDS011;62853;46.166;3.640;2022-11-15T14:34:46;1.48;;;1.10;;
74102;SDS011;62853;46.166;3.640;2022-11-15T14:37:20;2.17;;;1.30;;
74102;SDS011;62853;46.166;3.640;2022-11-15T14:39:49;2.55;;;1.38;;
74102;SDS011;62853;46.166;3.640;2022-11-15T14:42:14;2.00;;;1.20;;
74102;SDS011;62853;46.166;3.640;2022-11-15T14:44:40;3.03;;;1.52;;
74102;SDS011;62853;46.166;3.640;2022-11-15T14:47:06;2.13;;;1.40;;
74102;SDS011;62853;46.166;3.640;2022-11-15T14:49:31;2.78;;;1.50;;
74102;SDS011;62853;46.166;3.640;2022-11-15T14:51:57;2.40;;;1.55;;
74102;SDS011;62853;46.166;3.640;2022-11-15T14:54:22;1.58;;;1.38;;
74102;SDS011;62853;46.166;3.640;2022-11-15T14:56:47;1.30;;;1.20;;
74102;SDS011;62853;46.166;3.640;2022-11-15T14:59:14;3.20;;;2.10;;
74102;SDS011;62853;46.166;3.640;2022-11-15T15:01:39;1.75;;;1.60;;
74102;SDS011;62853;46.166;3.640;2022-11-15T15:04:05;1.77;;;1.42;;
74102;SDS011;62853;46.166;3.640;2022-11-15T15:06:30;2.00;;;1.50;;
74102;SDS011;62853;46.166;3.640;2022-11-15T15:08:56;1.52;;;1.42;;
74102;SDS011;62853;46.166;3.640;2022-11-15T15:11:28;3.53;;;1.90;;
74102;SDS011;62853;46.166;3.640;2022-11-15T15:13:56;1.60;;;1.50;;
74102;SDS011;62853;46.166;3.640;2022-11-15T15:16:23;3.90;;;1.80;;
74102;SDS011;62853;46.166;3.640;2022-11-15T15:18:49;2.55;;;1.85;;
74102;SDS011;62853;46.166;3.640;2022-11-15T15:21:27;1.80;;;1.70;;
74102;SDS011;62853;46.166;3.640;2022-11-15T15:23:53;2.75;;;1.50;;
74102;SDS011;62853;46.166;3.640;2022-11-15T15:26:19;2.30;;;2.10;;
74102;SDS011;62853;46.166;3.640;2022-11-15T15:28:45;3.50;;;2.13;;
74102;SDS011;62853;46.166;3.640;2022-11-15T15:31:13;3.30;;;2.05;;
74102;SDS011;62853;46.166;3.640;2022-11-15T15:33:38;3.75;;;2.00;;
74102;SDS011;62853;46.166;3.640;2022-11-15T15:36:04;2.40;;;2.20;;
74102;SDS011;62853;46.166;3.640;2022-11-15T15:38:30;3.30;;;2.20;;
74102;SDS011;62853;46.166;3.640;2022-11-15T15:40:55;2.25;;;2.03;;
74102;SDS011;62853;46.166;3.640;2022-11-15T15:43:20;2.47;;;2.28;;
74102;SDS011;62853;46.166;3.640;2022-11-15T15:45:46;2.28;;;2.13;;
74102;SDS011;62853;46.166;3.640;2022-11-15T15:48:15;3.42;;;2.30;;
74102;SDS011;62853;46.166;3.640;2022-11-15T15:50:42;2.90;;;2.70;;
74102;SDS011;62853;46.166;3.640;2022-11-15T15:53:08;5.30;;;2.90;;
74102;SDS011;62853;46.166;3.640;2022-11-15T15:55:36;2.40;;;2.20;;
74102;SDS011;62853;46.166;3.640;2022-11-15T15:58:02;4.90;;;2.53;;
74102;SDS011;62853;46.166;3.640;2022-11-15T16:00:28;3.75;;;2.78;;
74102;SDS011;62853;46.166;3.640;2022-11-15T16:02:54;3.20;;;2.90;;
74102;SDS011;62853;46.166;3.640;2022-11-15T16:05:19;3.05;;;2.70;;
74102;SDS011;62853;46.166;3.640;2022-11-15T16:07:46;2.20;;;2.00;;
74102;SDS011;62853;46.166;3.640;2022-11-15T16:12:40;4.05;;;2.20;;
74102;SDS011;62853;46.166;3.640;2022-11-15T16:15:07;3.17;;;2.47;;
74102;SDS011;62853;46.166;3.640;2022-11-15T16:17:37;2.25;;;2.05;;
74102;SDS011;62853;46.166;3.640;2022-11-15T16:20:06;2.42;;;2.00;;
74102;SDS011;62853;46.166;3.640;2022-11-15T16:22:31;2.10;;;1.90;;
74102;SDS011;62853;46.166;3.640;2022-11-15T16:24:57;3.25;;;2.65;;
74102;SDS011;62853;46.166;3.640;2022-11-15T16:27:22;2.60;;;2.40;;
74102;SDS011;62853;46.166;3.640;2022-11-15T16:29:48;3.00;;;2.53;;
74102;SDS011;62853;46.166;3.640;2022-11-15T16:32:14;3.40;;;2.72;;
74102;SDS011;62853;46.166;3.640;2022-11-15T16:34:40;1.85;;;1.75;;
74102;SDS011;62853;46.166;3.640;2022-11-15T16:37:21;1.88;;;1.77;;
74102;SDS011;62853;46.166;3.640;2022-11-15T16:39:47;4.35;;;3.67;;
74102;SDS011;62853;46.166;3.640;2022-11-15T16:42:13;3.75;;;3.45;;
74102;SDS011;62853;46.166;3.640;2022-11-15T16:44:38;4.85;;;3.90;;
74102;SDS011;62853;46.166;3.640;2022-11-15T16:47:03;4.30;;;3.83;;
74102;SDS011;62853;46.166;3.640;2022-11-15T16:49:29;3.65;;;3.35;;
74102;SDS011;62853;46.166;3.640;2022-11-15T16:51:54;3.15;;;2.80;;
74102;SDS011;62853;46.166;3.640;2022-11-15T16:54:20;4.40;;;3.47;;
74102;SDS011;62853;46.166;3.640;2022-11-15T16:56:45;4.80;;;4.40;;
74102;SDS011;62853;46.166;3.640;2022-11-15T16:59:14;4.82;;;4.10;;
74102;SDS011;62853;46.166;3.640;2022-11-15T17:01:41;4.85;;;4.10;;
74102;SDS011;62853;46.166;3.640;2022-11-15T17:04:15;5.47;;;4.28;;
74102;SDS011;62853;46.166;3.640;2022-11-15T17:06:42;3.80;;;3.50;;
74102;SDS011;62853;46.166;3.640;2022-11-15T17:09:10;3.65;;;3.35;;
74102;SDS011;62853;46.166;3.640;2022-11-15T17:11:41;5.53;;;4.13;;
74102;SDS011;62853;46.166;3.640;2022-11-15T17:14:07;4.10;;;3.70;;
74102;SDS011;62853;46.166;3.640;2022-11-15T17:16:33;5.03;;;4.53;;